sensor_id;sensor_type;location;lat;lon;timestamp;P1;durP1;ratioP1;P2;durP2;ratioP2
60969;SDS011;46841;48.938;9.502;2023-03-23T00:01:44;11.95;;;7.03;;
60969;SDS011;46841;48.938;9.502;2023-03-23T00:04:09;13.55;;;7.80;;
60969;SDS011;46841;48.938;9.502;2023-03-23T00:09:02;15.57;;;6.75;;
60969;SDS011;46841;48.938;9.502;2023-03-23T00:11:30;13.60;;;7.03;;
60969;SDS011;46841;48.938;9.502;2023-03-23T00:13:56;12.50;;;6.68;;
60969;SDS011;46841;48.938;9.502;2023-03-23T00:18:54;12.63;;;6.75;;
60969;SDS011;46841;48.938;9.502;2023-03-23T00:21:20;11.20;;;6.93;;
60969;SDS011;46841;48.938;9.502;2023-03-23T00:23:50;14.43;;;7.22;;
60969;SDS011;46841;48.938;9.502;2023-03-23T00:26:15;12.23;;;7.57;;
60969;SDS011;46841;48.938;9.502;2023-03-23T00:28:41;14.38;;;7.65;;
60969;SDS011;46841;48.938;9.502;2023-03-23T00:31:06;12.00;;;7.57;;
60969;SDS011;46841;48.938;9.502;2023-03-23T00:36:03;13.35;;;7.50;;
60969;SDS011;46841;48.938;9.502;2023-03-23T00:38:28;13.38;;;7.53;;
60969;SDS011;46841;48.938;9.502;2023-03-23T00:40:54;13.07;;;7.50;;
60969;SDS011;46841;48.938;9.502;2023-03-23T00:43:20;13.07;;;8.07;;
60969;SDS011;46841;48.938;9.502;2023-03-23T00:45:49;13.70;;;7.95;;
60969;SDS011;46841;48.938;9.502;2023-03-23T00:48:21;12.93;;;7.00;;
60969;SDS011;46841;48.938;9.502;2023-03-23T00:50:47;11.82;;;7.40;;
60969;SDS011;46841;48.938;9.502;2023-03-23T00:53:13;11.27;;;6.25;;
60969;SDS011;46841;48.938;9.502;2023-03-23T00:55:40;14.23;;;6.85;;
60969;SDS011;46841;48.938;9.502;2023-03-23T00:58:05;14.93;;;7.07;;
60969;SDS011;46841;48.938;9.502;2023-03-23T01:00:30;15.93;;;6.78;;
60969;SDS011;46841;48.938;9.502;2023-03-23T01:02:56;11.90;;;5.70;;
60969;SDS011;46841;48.938;9.502;2023-03-23T01:05:22;11.38;;;4.60;;
60969;SDS011;46841;48.938;9.502;2023-03-23T01:07:48;9.18;;;4.38;;
60969;SDS011;46841;48.938;9.502;2023-03-23T01:10:13;8.65;;;3.78;;
60969;SDS011;46841;48.938;9.502;2023-03-23T01:12:42;8.90;;;3.70;;
60969;SDS011;46841;48.938;9.502;2023-03-23T01:15:07;7.50;;;3.40;;
60969;SDS011;46841;48.938;9.502;2023-03-23T01:17:33;7.18;;;3.15;;
60969;SDS011;46841;48.938;9.502;2023-03-23T01:19:58;7.95;;;4.18;;
60969;SDS011;46841;48.938;9.502;2023-03-23T01:22:23;10.27;;;4.15;;
60969;SDS011;46841;48.938;9.502;2023-03-23T01:24:49;13.80;;;6.07;;
60969;SDS011;46841;48.938;9.502;2023-03-23T01:27:14;9.70;;;5.45;;
60969;SDS011;46841;48.938;9.502;2023-03-23T01:29:40;10.00;;;5.97;;
60969;SDS011;46841;48.938;9.502;2023-03-23T01:32:05;14.43;;;5.50;;
60969;SDS011;46841;48.938;9.502;2023-03-23T01:34:31;9.75;;;5.88;;
60969;SDS011;46841;48.938;9.502;2023-03-23T01:36:57;10.80;;;5.90;;
60969;SDS011;46841;48.938;9.502;2023-03-23T01:39:22;10.95;;;5.45;;
60969;SDS011;46841;48.938;9.502;2023-03-23T01:41:48;11.38;;;5.40;;
60969;SDS011;46841;48.938;9.502;2023-03-23T01:46:54;10.18;;;5.22;;
60969;SDS011;46841;48.938;9.502;2023-03-23T01:49:24;12.93;;;6.60;;
60969;SDS011;46841;48.938;9.502;2023-03-23T01:51:53;10.57;;;6.07;;
60969;SDS011;46841;48.938;9.502;2023-03-23T01:54:21;9.52;;;5.50;;
60969;SDS011;46841;48.938;9.502;2023-03-23T01:56:59;9.60;;;5.43;;
60969;SDS011;46841;48.938;9.502;2023-03-23T01:59:24;9.32;;;5.45;;
60969;SDS011;46841;48.938;9.502;2023-03-23T02:02:03;7.68;;;5.43;;
60969;SDS011;46841;48.938;9.502;2023-03-23T02:04:30;9.25;;;5.00;;
60969;SDS011;46841;48.938;9.502;2023-03-23T02:06:56;8.35;;;4.97;;
60969;SDS011;46841;48.938;9.502;2023-03-23T02:09:25;8.40;;;4.63;;
60969;SDS011;46841;48.938;9.502;2023-03-23T02:11:51;13.23;;;5.13;;
60969;SDS011;46841;48.938;9.502;2023-03-23T02:14:17;7.88;;;4.47;;
60969;SDS011;46841;48.938;9.502;2023-03-23T02:16:44;8.30;;;4.07;;
60969;SDS011;46841;48.938;9.502;2023-03-23T02:24:41;7.13;;;3.45;;
60969;SDS011;46841;48.938;9.502;2023-03-23T02:27:16;7.68;;;3.83;;
60969;SDS011;46841;48.938;9.502;2023-03-23T02:35:18;8.50;;;3.78;;
60969;SDS011;46841;48.938;9.502;2023-03-23T02:40:17;7.10;;;3.38;;
60969;SDS011;46841;48.938;9.502;2023-03-23T02:42:46;10.50;;;3.25;;
60969;SDS011;46841;48.938;9.502;2023-03-23T02:45:12;10.27;;;3.58;;
60969;SDS011;46841;48.938;9.502;2023-03-23T02:47:39;7.38;;;3.10;;
60969;SDS011;46841;48.938;9.502;2023-03-23T02:50:07;5.63;;;2.90;;
60969;SDS011;46841;48.938;9.502;2023-03-23T02:52:35;7.78;;;2.95;;
60969;SDS011;46841;48.938;9.502;2023-03-23T02:55:02;5.50;;;2.78;;
60969;SDS011;46841;48.938;9.502;2023-03-23T02:57:28;4.90;;;2.58;;
60969;SDS011;46841;48.938;9.502;2023-03-23T02:59:55;5.53;;;2.15;;
60969;SDS011;46841;48.938;9.502;2023-03-23T03:02:21;5.18;;;2.20;;
60969;SDS011;46841;48.938;9.502;2023-03-23T03:07:23;4.30;;;2.10;;
60969;SDS011;46841;48.938;9.502;2023-03-23T03:09:58;4.38;;;2.47;;
60969;SDS011;46841;48.938;9.502;2023-03-23T03:14:57;4.97;;;2.30;;
60969;SDS011;46841;48.938;9.502;2023-03-23T03:17:26;4.10;;;2.22;;
60969;SDS011;46841;48.938;9.502;2023-03-23T03:19:56;3.50;;;2.00;;
60969;SDS011;46841;48.938;9.502;2023-03-23T03:22:23;5.07;;;2.10;;
60969;SDS011;46841;48.938;9.502;2023-03-23T03:24:48;3.58;;;2.17;;
60969;SDS011;46841;48.938;9.502;2023-03-23T03:27:15;3.83;;;2.03;;
60969;SDS011;46841;48.938;9.502;2023-03-23T03:29:53;3.83;;;2.05;;
60969;SDS011;46841;48.938;9.502;2023-03-23T03:32:21;3.72;;;2.00;;
60969;SDS011;46841;48.938;9.502;2023-03-23T03:34:48;4.18;;;2.20;;
60969;SDS011;46841;48.938;9.502;2023-03-23T03:37:15;4.25;;;2.30;;
60969;SDS011;46841;48.938;9.502;2023-03-23T03:39:41;3.70;;;2.08;;
60969;SDS011;46841;48.938;9.502;2023-03-23T03:42:09;3.53;;;2.10;;
60969;SDS011;46841;48.938;9.502;2023-03-23T03:44:34;3.40;;;2.10;;
60969;SDS011;46841;48.938;9.502;2023-03-23T03:47:00;4.15;;;2.13;;
60969;SDS011;46841;48.938;9.502;2023-03-23T03:49:25;4.20;;;1.85;;
60969;SDS011;46841;48.938;9.502;2023-03-23T03:51:52;3.97;;;2.05;;
60969;SDS011;46841;48.938;9.502;2023-03-23T03:54:22;4.15;;;2.10;;
60969;SDS011;46841;48.938;9.502;2023-03-23T03:56:48;4.57;;;2.30;;
60969;SDS011;46841;48.938;9.502;2023-03-23T03:59:32;5.07;;;2.30;;
60969;SDS011;46841;48.938;9.502;2023-03-23T04:02:23;5.28;;;2.10;;
60969;SDS011;46841;48.938;9.502;2023-03-23T04:04:50;3.97;;;2.00;;
60969;SDS011;46841;48.938;9.502;2023-03-23T04:07:17;3.63;;;2.17;;
60969;SDS011;46841;48.938;9.502;2023-03-23T04:09:43;6.53;;;2.15;;
60969;SDS011;46841;48.938;9.502;2023-03-23T04:12:12;3.75;;;2.25;;
60969;SDS011;46841;48.938;9.502;2023-03-23T04:14:55;4.40;;;2.10;;
60969;SDS011;46841;48.938;9.502;2023-03-23T04:19:51;3.28;;;1.80;;
60969;SDS011;46841;48.938;9.502;2023-03-23T04:22:16;3.70;;;2.15;;
60969;SDS011;46841;48.938;9.502;2023-03-23T04:24:42;3.70;;;2.10;;
60969;SDS011;46841;48.938;9.502;2023-03-23T04:27:12;3.63;;;2.05;;
60969;SDS011;46841;48.938;9.502;2023-03-23T04:29:38;4.87;;;2.30;;
60969;SDS011;46841;48.938;9.502;2023-03-23T04:32:33;2.97;;;1.95;;
60969;SDS011;46841;48.938;9.502;2023-03-23T04:34:59;6.63;;;2.10;;
60969;SDS011;46841;48.938;9.502;2023-03-23T04:37:30;4.57;;;2.08;;
60969;SDS011;46841;48.938;9.502;2023-03-23T04:39:56;3.25;;;2.08;;
60969;SDS011;46841;48.938;9.502;2023-03-23T04:42:27;3.92;;;2.20;;
60969;SDS011;46841;48.938;9.502;2023-03-23T04:45:16;4.97;;;2.38;;
60969;SDS011;46841;48.938;9.502;2023-03-23T04:47:50;3.90;;;2.10;;
60969;SDS011;46841;48.938;9.502;2023-03-23T04:50:29;2.65;;;1.95;;
60969;SDS011;46841;48.938;9.502;2023-03-23T04:53:03;7.00;;;2.20;;
60969;SDS011;46841;48.938;9.502;2023-03-23T04:55:31;4.95;;;2.15;;
60969;SDS011;46841;48.938;9.502;2023-03-23T04:58:05;3.45;;;2.15;;
60969;SDS011;46841;48.938;9.502;2023-03-23T05:00:42;5.25;;;2.33;;
60969;SDS011;46841;48.938;9.502;2023-03-23T05:03:11;4.13;;;2.35;;
60969;SDS011;46841;48.938;9.502;2023-03-23T05:05:41;3.20;;;1.83;;
60969;SDS011;46841;48.938;9.502;2023-03-23T05:08:07;3.90;;;1.98;;
60969;SDS011;46841;48.938;9.502;2023-03-23T05:10:35;4.05;;;2.20;;
60969;SDS011;46841;48.938;9.502;2023-03-23T05:13:06;4.00;;;1.80;;
60969;SDS011;46841;48.938;9.502;2023-03-23T05:15:32;3.80;;;1.90;;
60969;SDS011;46841;48.938;9.502;2023-03-23T05:17:58;3.67;;;2.05;;
60969;SDS011;46841;48.938;9.502;2023-03-23T05:20:24;3.65;;;2.20;;
60969;SDS011;46841;48.938;9.502;2023-03-23T05:22:52;4.30;;;2.60;;
60969;SDS011;46841;48.938;9.502;2023-03-23T05:25:26;4.65;;;2.00;;
60969;SDS011;46841;48.938;9.502;2023-03-23T05:27:58;6.55;;;2.40;;
60969;SDS011;46841;48.938;9.502;2023-03-23T05:33:12;4.05;;;2.47;;
60969;SDS011;46841;48.938;9.502;2023-03-23T05:35:58;3.88;;;2.30;;
60969;SDS011;46841;48.938;9.502;2023-03-23T05:38:28;6.85;;;2.33;;
60969;SDS011;46841;48.938;9.502;2023-03-23T05:40:57;3.47;;;2.30;;
60969;SDS011;46841;48.938;9.502;2023-03-23T05:43:27;4.78;;;2.47;;
60969;SDS011;46841;48.938;9.502;2023-03-23T05:46:07;3.50;;;2.20;;
60969;SDS011;46841;48.938;9.502;2023-03-23T05:48:34;3.30;;;2.08;;
60969;SDS011;46841;48.938;9.502;2023-03-23T05:51:01;4.72;;;2.40;;
60969;SDS011;46841;48.938;9.502;2023-03-23T05:55:57;5.97;;;2.70;;
60969;SDS011;46841;48.938;9.502;2023-03-23T05:58:37;6.28;;;2.50;;
60969;SDS011;46841;48.938;9.502;2023-03-23T06:01:07;3.40;;;2.30;;
60969;SDS011;46841;48.938;9.502;2023-03-23T06:03:32;3.47;;;2.10;;
60969;SDS011;46841;48.938;9.502;2023-03-23T06:06:04;7.20;;;3.67;;
60969;SDS011;46841;48.938;9.502;2023-03-23T06:08:42;8.13;;;3.70;;
60969;SDS011;46841;48.938;9.502;2023-03-23T06:11:08;5.32;;;2.97;;
60969;SDS011;46841;48.938;9.502;2023-03-23T06:13:40;7.20;;;3.20;;
60969;SDS011;46841;48.938;9.502;2023-03-23T06:16:08;6.10;;;2.97;;
60969;SDS011;46841;48.938;9.502;2023-03-23T06:18:52;6.43;;;3.00;;
60969;SDS011;46841;48.938;9.502;2023-03-23T06:21:28;6.18;;;2.78;;
60969;SDS011;46841;48.938;9.502;2023-03-23T06:24:14;5.50;;;2.58;;
60969;SDS011;46841;48.938;9.502;2023-03-23T06:26:39;6.75;;;2.90;;
60969;SDS011;46841;48.938;9.502;2023-03-23T06:29:10;7.03;;;3.03;;
60969;SDS011;46841;48.938;9.502;2023-03-23T06:31:43;6.70;;;2.92;;
60969;SDS011;46841;48.938;9.502;2023-03-23T06:34:10;4.60;;;2.60;;
60969;SDS011;46841;48.938;9.502;2023-03-23T06:36:55;5.72;;;3.10;;
60969;SDS011;46841;48.938;9.502;2023-03-23T06:39:34;5.00;;;2.60;;
60969;SDS011;46841;48.938;9.502;2023-03-23T06:42:18;6.07;;;2.75;;
60969;SDS011;46841;48.938;9.502;2023-03-23T06:44:49;5.07;;;2.60;;
60969;SDS011;46841;48.938;9.502;2023-03-23T06:47:15;6.97;;;2.80;;
60969;SDS011;46841;48.938;9.502;2023-03-23T06:49:45;5.53;;;3.05;;
60969;SDS011;46841;48.938;9.502;2023-03-23T06:52:18;8.63;;;3.97;;
60969;SDS011;46841;48.938;9.502;2023-03-23T06:54:43;8.13;;;3.92;;
60969;SDS011;46841;48.938;9.502;2023-03-23T06:57:10;6.20;;;4.10;;
60969;SDS011;46841;48.938;9.502;2023-03-23T06:59:36;6.97;;;3.92;;
60969;SDS011;46841;48.938;9.502;2023-03-23T07:02:02;7.07;;;3.55;;
60969;SDS011;46841;48.938;9.502;2023-03-23T07:04:28;8.80;;;3.50;;
60969;SDS011;46841;48.938;9.502;2023-03-23T07:07:03;7.45;;;3.20;;
60969;SDS011;46841;48.938;9.502;2023-03-23T07:09:35;7.28;;;3.08;;
60969;SDS011;46841;48.938;9.502;2023-03-23T07:12:00;5.05;;;3.17;;
60969;SDS011;46841;48.938;9.502;2023-03-23T07:14:34;5.65;;;3.03;;
60969;SDS011;46841;48.938;9.502;2023-03-23T07:16:59;6.03;;;3.20;;
60969;SDS011;46841;48.938;9.502;2023-03-23T07:19:26;5.55;;;2.88;;
60969;SDS011;46841;48.938;9.502;2023-03-23T07:21:51;5.97;;;2.95;;
60969;SDS011;46841;48.938;9.502;2023-03-23T07:24:19;7.22;;;2.78;;
60969;SDS011;46841;48.938;9.502;2023-03-23T07:26:59;7.38;;;2.88;;
60969;SDS011;46841;48.938;9.502;2023-03-23T07:29:25;4.93;;;2.80;;
60969;SDS011;46841;48.938;9.502;2023-03-23T07:32:00;5.32;;;2.80;;
60969;SDS011;46841;48.938;9.502;2023-03-23T07:34:26;5.10;;;3.42;;
60969;SDS011;46841;48.938;9.502;2023-03-23T07:37:02;4.85;;;3.00;;
60969;SDS011;46841;48.938;9.502;2023-03-23T07:39:29;5.28;;;2.58;;
60969;SDS011;46841;48.938;9.502;2023-03-23T07:41:57;4.32;;;2.53;;
60969;SDS011;46841;48.938;9.502;2023-03-23T07:44:47;4.65;;;2.50;;
60969;SDS011;46841;48.938;9.502;2023-03-23T07:47:13;7.97;;;2.42;;
60969;SDS011;46841;48.938;9.502;2023-03-23T07:49:39;4.95;;;2.22;;
60969;SDS011;46841;48.938;9.502;2023-03-23T07:52:36;7.72;;;2.80;;
60969;SDS011;46841;48.938;9.502;2023-03-23T07:55:04;4.57;;;2.65;;
60969;SDS011;46841;48.938;9.502;2023-03-23T07:57:52;4.68;;;2.63;;
60969;SDS011;46841;48.938;9.502;2023-03-23T08:00:19;5.10;;;2.50;;
60969;SDS011;46841;48.938;9.502;2023-03-23T08:02:46;6.50;;;2.50;;
60969;SDS011;46841;48.938;9.502;2023-03-23T08:05:25;7.28;;;3.13;;
60969;SDS011;46841;48.938;9.502;2023-03-23T08:08:10;4.13;;;2.60;;
60969;SDS011;46841;48.938;9.502;2023-03-23T08:10:54;6.25;;;2.70;;
60969;SDS011;46841;48.938;9.502;2023-03-23T08:13:37;9.75;;;2.83;;
60969;SDS011;46841;48.938;9.502;2023-03-23T08:18:59;6.10;;;2.90;;
60969;SDS011;46841;48.938;9.502;2023-03-23T08:21:43;6.18;;;2.60;;
60969;SDS011;46841;48.938;9.502;2023-03-23T08:24:44;5.13;;;2.38;;
60969;SDS011;46841;48.938;9.502;2023-03-23T08:27:13;7.07;;;2.70;;
60969;SDS011;46841;48.938;9.502;2023-03-23T08:29:53;4.55;;;2.30;;
60969;SDS011;46841;48.938;9.502;2023-03-23T08:32:48;5.32;;;2.30;;
60969;SDS011;46841;48.938;9.502;2023-03-23T08:35:33;7.63;;;2.30;;
60969;SDS011;46841;48.938;9.502;2023-03-23T08:38:31;3.92;;;2.20;;
60969;SDS011;46841;48.938;9.502;2023-03-23T08:41:17;7.50;;;2.63;;
60969;SDS011;46841;48.938;9.502;2023-03-23T08:43:58;5.32;;;2.50;;
60969;SDS011;46841;48.938;9.502;2023-03-23T08:46:41;5.70;;;2.30;;
60969;SDS011;46841;48.938;9.502;2023-03-23T08:49:27;6.78;;;2.35;;
60969;SDS011;46841;48.938;9.502;2023-03-23T08:52:12;4.50;;;2.20;;
60969;SDS011;46841;48.938;9.502;2023-03-23T08:54:57;3.72;;;2.40;;
60969;SDS011;46841;48.938;9.502;2023-03-23T08:57:32;3.83;;;2.40;;
60969;SDS011;46841;48.938;9.502;2023-03-23T09:00:14;6.15;;;2.40;;
60969;SDS011;46841;48.938;9.502;2023-03-23T09:02:55;4.80;;;2.35;;
60969;SDS011;46841;48.938;9.502;2023-03-23T09:05:26;4.50;;;2.17;;
60969;SDS011;46841;48.938;9.502;2023-03-23T09:08:01;5.35;;;2.40;;
60969;SDS011;46841;48.938;9.502;2023-03-23T09:10:28;4.22;;;2.22;;
60969;SDS011;46841;48.938;9.502;2023-03-23T09:12:55;5.35;;;2.60;;
60969;SDS011;46841;48.938;9.502;2023-03-23T09:15:21;4.18;;;2.30;;
60969;SDS011;46841;48.938;9.502;2023-03-23T09:17:47;5.68;;;2.30;;
60969;SDS011;46841;48.938;9.502;2023-03-23T09:20:14;5.07;;;2.65;;
60969;SDS011;46841;48.938;9.502;2023-03-23T09:22:44;7.53;;;2.50;;
60969;SDS011;46841;48.938;9.502;2023-03-23T09:25:10;4.88;;;2.50;;
60969;SDS011;46841;48.938;9.502;2023-03-23T09:30:05;4.70;;;2.60;;
60969;SDS011;46841;48.938;9.502;2023-03-23T09:32:34;4.13;;;2.65;;
60969;SDS011;46841;48.938;9.502;2023-03-23T09:35:00;5.75;;;2.40;;
60969;SDS011;46841;48.938;9.502;2023-03-23T09:37:25;4.20;;;2.45;;
60969;SDS011;46841;48.938;9.502;2023-03-23T09:39:51;8.38;;;2.70;;
60969;SDS011;46841;48.938;9.502;2023-03-23T09:45:05;3.97;;;2.38;;
60969;SDS011;46841;48.938;9.502;2023-03-23T09:47:37;4.05;;;2.25;;
60969;SDS011;46841;48.938;9.502;2023-03-23T09:50:17;4.18;;;2.25;;
60969;SDS011;46841;48.938;9.502;2023-03-23T09:52:54;5.22;;;2.20;;
60969;SDS011;46841;48.938;9.502;2023-03-23T09:55:20;4.47;;;2.22;;
60969;SDS011;46841;48.938;9.502;2023-03-23T09:57:54;6.70;;;2.40;;
60969;SDS011;46841;48.938;9.502;2023-03-23T10:00:22;4.00;;;2.00;;
60969;SDS011;46841;48.938;9.502;2023-03-23T10:07:43;5.82;;;2.33;;
60969;SDS011;46841;48.938;9.502;2023-03-23T10:10:11;6.53;;;2.55;;
60969;SDS011;46841;48.938;9.502;2023-03-23T10:13:00;6.90;;;2.17;;
60969;SDS011;46841;48.938;9.502;2023-03-23T10:15:30;6.55;;;2.30;;
60969;SDS011;46841;48.938;9.502;2023-03-23T10:18:36;4.22;;;2.30;;
60969;SDS011;46841;48.938;9.502;2023-03-23T10:20:50;3.88;;;2.20;;
60969;SDS011;46841;48.938;9.502;2023-03-23T10:25:49;3.85;;;2.20;;
60969;SDS011;46841;48.938;9.502;2023-03-23T10:31:18;3.33;;;2.10;;
60969;SDS011;46841;48.938;9.502;2023-03-23T10:33:45;4.82;;;2.20;;
60969;SDS011;46841;48.938;9.502;2023-03-23T10:38:58;3.60;;;2.10;;
60969;SDS011;46841;48.938;9.502;2023-03-23T10:41:26;10.35;;;2.50;;
60969;SDS011;46841;48.938;9.502;2023-03-23T10:43:51;4.25;;;2.20;;
60969;SDS011;46841;48.938;9.502;2023-03-23T10:48:43;4.13;;;2.10;;
60969;SDS011;46841;48.938;9.502;2023-03-23T10:51:10;5.68;;;1.73;;
60969;SDS011;46841;48.938;9.502;2023-03-23T10:53:38;9.60;;;1.95;;
60969;SDS011;46841;48.938;9.502;2023-03-23T10:56:04;9.07;;;2.10;;
60969;SDS011;46841;48.938;9.502;2023-03-23T10:58:31;5.25;;;2.25;;
60969;SDS011;46841;48.938;9.502;2023-03-23T11:00:57;4.57;;;2.10;;
60969;SDS011;46841;48.938;9.502;2023-03-23T11:06:08;6.15;;;2.20;;
60969;SDS011;46841;48.938;9.502;2023-03-23T11:08:38;6.70;;;2.17;;
60969;SDS011;46841;48.938;9.502;2023-03-23T11:11:16;4.72;;;2.17;;
60969;SDS011;46841;48.938;9.502;2023-03-23T11:13:42;5.93;;;2.17;;
60969;SDS011;46841;48.938;9.502;2023-03-23T11:16:21;3.35;;;1.83;;
60969;SDS011;46841;48.938;9.502;2023-03-23T11:18:47;5.22;;;1.90;;
60969;SDS011;46841;48.938;9.502;2023-03-23T11:21:13;7.65;;;2.38;;
60969;SDS011;46841;48.938;9.502;2023-03-23T11:23:42;3.97;;;1.70;;
60969;SDS011;46841;48.938;9.502;2023-03-23T11:28:34;2.75;;;1.80;;
60969;SDS011;46841;48.938;9.502;2023-03-23T11:31:01;3.42;;;2.00;;
60969;SDS011;46841;48.938;9.502;2023-03-23T11:33:35;2.83;;;1.80;;
60969;SDS011;46841;48.938;9.502;2023-03-23T11:36:01;2.70;;;1.80;;
60969;SDS011;46841;48.938;9.502;2023-03-23T11:38:27;6.65;;;2.15;;
60969;SDS011;46841;48.938;9.502;2023-03-23T11:40:53;2.97;;;1.83;;
60969;SDS011;46841;48.938;9.502;2023-03-23T11:43:20;2.88;;;1.90;;
60969;SDS011;46841;48.938;9.502;2023-03-23T11:48:20;3.75;;;2.10;;
60969;SDS011;46841;48.938;9.502;2023-03-23T11:58:31;3.72;;;2.05;;
60969;SDS011;46841;48.938;9.502;2023-03-23T12:03:23;4.45;;;2.00;;
60969;SDS011;46841;48.938;9.502;2023-03-23T12:11:00;2.85;;;2.00;;
60969;SDS011;46841;48.938;9.502;2023-03-23T12:26:04;5.30;;;2.15;;
60969;SDS011;46841;48.938;9.502;2023-03-23T12:43:38;4.03;;;2.20;;
60969;SDS011;46841;48.938;9.502;2023-03-23T12:48:40;4.10;;;2.03;;
60969;SDS011;46841;48.938;9.502;2023-03-23T12:51:11;7.53;;;2.15;;
60969;SDS011;46841;48.938;9.502;2023-03-23T12:56:15;4.93;;;2.10;;
60969;SDS011;46841;48.938;9.502;2023-03-23T12:58:43;4.30;;;2.10;;
60969;SDS011;46841;48.938;9.502;2023-03-23T13:01:15;4.97;;;1.90;;
60969;SDS011;46841;48.938;9.502;2023-03-23T13:06:17;3.55;;;2.20;;
60969;SDS011;46841;48.938;9.502;2023-03-23T13:08:50;4.22;;;2.17;;
60969;SDS011;46841;48.938;9.502;2023-03-23T13:11:40;5.90;;;2.40;;
60969;SDS011;46841;48.938;9.502;2023-03-23T13:14:18;4.10;;;2.00;;
60969;SDS011;46841;48.938;9.502;2023-03-23T13:22:12;3.60;;;1.90;;
60969;SDS011;46841;48.938;9.502;2023-03-23T13:24:40;4.00;;;2.03;;
60969;SDS011;46841;48.938;9.502;2023-03-23T13:27:07;5.15;;;2.10;;
60969;SDS011;46841;48.938;9.502;2023-03-23T13:32:20;4.53;;;2.10;;
60969;SDS011;46841;48.938;9.502;2023-03-23T13:34:45;4.63;;;2.33;;
60969;SDS011;46841;48.938;9.502;2023-03-23T13:37:19;3.55;;;1.95;;
60969;SDS011;46841;48.938;9.502;2023-03-23T13:39:52;4.88;;;2.03;;
60969;SDS011;46841;48.938;9.502;2023-03-23T13:42:24;5.53;;;2.63;;
60969;SDS011;46841;48.938;9.502;2023-03-23T13:52:21;5.13;;;2.50;;
60969;SDS011;46841;48.938;9.502;2023-03-23T13:54:50;4.28;;;2.38;;
60969;SDS011;46841;48.938;9.502;2023-03-23T13:57:20;4.25;;;2.47;;
60969;SDS011;46841;48.938;9.502;2023-03-23T13:59:47;8.13;;;2.60;;
60969;SDS011;46841;48.938;9.502;2023-03-23T14:02:30;5.47;;;2.33;;
60969;SDS011;46841;48.938;9.502;2023-03-23T14:04:56;3.25;;;2.22;;
60969;SDS011;46841;48.938;9.502;2023-03-23T14:07:22;4.40;;;2.50;;
60969;SDS011;46841;48.938;9.502;2023-03-23T14:09:49;4.85;;;2.42;;
60969;SDS011;46841;48.938;9.502;2023-03-23T14:14:41;4.28;;;2.72;;
60969;SDS011;46841;48.938;9.502;2023-03-23T14:17:15;6.10;;;2.40;;
60969;SDS011;46841;48.938;9.502;2023-03-23T14:19:42;5.88;;;2.60;;
60969;SDS011;46841;48.938;9.502;2023-03-23T14:27:34;5.30;;;2.78;;
60969;SDS011;46841;48.938;9.502;2023-03-23T14:30:00;5.05;;;2.78;;
60969;SDS011;46841;48.938;9.502;2023-03-23T14:32:27;4.78;;;2.40;;
60969;SDS011;46841;48.938;9.502;2023-03-23T14:34:52;5.70;;;2.60;;
60969;SDS011;46841;48.938;9.502;2023-03-23T14:37:18;5.25;;;2.60;;
60969;SDS011;46841;48.938;9.502;2023-03-23T14:39:46;5.75;;;2.67;;
60969;SDS011;46841;48.938;9.502;2023-03-23T14:42:13;8.35;;;2.70;;
60969;SDS011;46841;48.938;9.502;2023-03-23T14:44:46;5.28;;;2.65;;
60969;SDS011;46841;48.938;9.502;2023-03-23T14:49:44;4.78;;;2.75;;
60969;SDS011;46841;48.938;9.502;2023-03-23T14:52:11;3.87;;;2.23;;
60969;SDS011;46841;48.938;9.502;2023-03-23T14:54:37;4.63;;;2.50;;
60969;SDS011;46841;48.938;9.502;2023-03-23T14:59:58;3.95;;;2.60;;
60969;SDS011;46841;48.938;9.502;2023-03-23T15:02:25;7.40;;;2.70;;
60969;SDS011;46841;48.938;9.502;2023-03-23T15:04:54;3.67;;;2.40;;
60969;SDS011;46841;48.938;9.502;2023-03-23T15:07:21;4.95;;;2.60;;
60969;SDS011;46841;48.938;9.502;2023-03-23T15:09:49;4.30;;;2.60;;
60969;SDS011;46841;48.938;9.502;2023-03-23T15:12:24;4.68;;;2.55;;
60969;SDS011;46841;48.938;9.502;2023-03-23T15:14:55;4.80;;;2.50;;
60969;SDS011;46841;48.938;9.502;2023-03-23T15:17:28;4.50;;;2.50;;
60969;SDS011;46841;48.938;9.502;2023-03-23T15:19:55;5.63;;;3.20;;
60969;SDS011;46841;48.938;9.502;2023-03-23T15:22:25;4.97;;;2.85;;
60969;SDS011;46841;48.938;9.502;2023-03-23T15:24:51;6.18;;;3.00;;
60969;SDS011;46841;48.938;9.502;2023-03-23T15:27:26;6.28;;;2.70;;
60969;SDS011;46841;48.938;9.502;2023-03-23T15:29:53;5.03;;;2.33;;
60969;SDS011;46841;48.938;9.502;2023-03-23T15:32:20;4.95;;;2.65;;
60969;SDS011;46841;48.938;9.502;2023-03-23T15:34:45;4.35;;;2.80;;
60969;SDS011;46841;48.938;9.502;2023-03-23T15:40:02;10.13;;;6.38;;
60969;SDS011;46841;48.938;9.502;2023-03-23T15:42:32;8.57;;;6.20;;
60969;SDS011;46841;48.938;9.502;2023-03-23T15:52:38;7.70;;;3.53;;
60969;SDS011;46841;48.938;9.502;2023-03-23T15:55:03;6.20;;;3.67;;
60969;SDS011;46841;48.938;9.502;2023-03-23T15:57:41;5.57;;;3.65;;
60969;SDS011;46841;48.938;9.502;2023-03-23T16:00:07;7.10;;;4.07;;
60969;SDS011;46841;48.938;9.502;2023-03-23T16:02:36;7.40;;;4.30;;
60969;SDS011;46841;48.938;9.502;2023-03-23T16:05:02;5.30;;;3.83;;
60969;SDS011;46841;48.938;9.502;2023-03-23T16:07:27;6.07;;;3.42;;
60969;SDS011;46841;48.938;9.502;2023-03-23T16:09:53;7.82;;;4.00;;
60969;SDS011;46841;48.938;9.502;2023-03-23T16:12:18;10.43;;;5.55;;
60969;SDS011;46841;48.938;9.502;2023-03-23T16:14:43;8.52;;;4.97;;
60969;SDS011;46841;48.938;9.502;2023-03-23T16:17:13;8.65;;;4.20;;
60969;SDS011;46841;48.938;9.502;2023-03-23T16:19:40;8.60;;;4.28;;
60969;SDS011;46841;48.938;9.502;2023-03-23T16:22:05;5.90;;;3.63;;
60969;SDS011;46841;48.938;9.502;2023-03-23T16:24:31;5.43;;;3.55;;
60969;SDS011;46841;48.938;9.502;2023-03-23T16:26:56;6.55;;;4.00;;
60969;SDS011;46841;48.938;9.502;2023-03-23T16:29:22;6.60;;;3.80;;
60969;SDS011;46841;48.938;9.502;2023-03-23T16:31:47;7.82;;;3.20;;
60969;SDS011;46841;48.938;9.502;2023-03-23T16:34:12;6.65;;;3.50;;
60969;SDS011;46841;48.938;9.502;2023-03-23T16:36:37;6.20;;;3.58;;
60969;SDS011;46841;48.938;9.502;2023-03-23T16:39:11;11.18;;;3.40;;
60969;SDS011;46841;48.938;9.502;2023-03-23T16:41:36;11.43;;;4.20;;
60969;SDS011;46841;48.938;9.502;2023-03-23T16:44:02;7.43;;;4.50;;
60969;SDS011;46841;48.938;9.502;2023-03-23T16:46:27;9.20;;;4.03;;
60969;SDS011;46841;48.938;9.502;2023-03-23T16:48:53;9.63;;;4.38;;
60969;SDS011;46841;48.938;9.502;2023-03-23T16:51:19;8.65;;;4.38;;
60969;SDS011;46841;48.938;9.502;2023-03-23T16:53:45;7.78;;;3.92;;
60969;SDS011;46841;48.938;9.502;2023-03-23T16:56:10;6.88;;;3.60;;
60969;SDS011;46841;48.938;9.502;2023-03-23T16:58:35;7.25;;;3.28;;
60969;SDS011;46841;48.938;9.502;2023-03-23T17:01:01;5.95;;;3.28;;
60969;SDS011;46841;48.938;9.502;2023-03-23T17:03:27;6.38;;;3.45;;
60969;SDS011;46841;48.938;9.502;2023-03-23T17:05:52;7.15;;;3.13;;
60969;SDS011;46841;48.938;9.502;2023-03-23T17:08:18;7.20;;;3.20;;
60969;SDS011;46841;48.938;9.502;2023-03-23T17:10:44;7.78;;;2.80;;
60969;SDS011;46841;48.938;9.502;2023-03-23T17:13:09;4.43;;;2.40;;
60969;SDS011;46841;48.938;9.502;2023-03-23T17:15:39;6.32;;;2.45;;
60969;SDS011;46841;48.938;9.502;2023-03-23T17:18:05;4.47;;;2.28;;
60969;SDS011;46841;48.938;9.502;2023-03-23T17:20:30;4.65;;;2.50;;
60969;SDS011;46841;48.938;9.502;2023-03-23T17:22:55;4.97;;;2.38;;
60969;SDS011;46841;48.938;9.502;2023-03-23T17:25:21;4.43;;;2.53;;
60969;SDS011;46841;48.938;9.502;2023-03-23T17:27:46;6.07;;;3.10;;
60969;SDS011;46841;48.938;9.502;2023-03-23T17:30:11;7.03;;;3.65;;
60969;SDS011;46841;48.938;9.502;2023-03-23T17:32:37;7.80;;;3.63;;
60969;SDS011;46841;48.938;9.502;2023-03-23T17:35:03;6.47;;;3.40;;
60969;SDS011;46841;48.938;9.502;2023-03-23T17:37:29;6.90;;;4.27;;
60969;SDS011;46841;48.938;9.502;2023-03-23T17:39:55;8.07;;;3.13;;